Time;durP1;ratioP1;P1;durP2;ratioP2;P2;SDS_P1;SDS_P2;PMS_P1;PMS_P2;Temp;Humidity;BMP_temperature;BMP_pressure;BME280_temperature;BME280_humidity;BME280_pressure;Samples;Min_cycle;Max_cycle;Signal;HPM_P1;HPM_P2
2021/12/25 00:01:05;;;;;;;;;;;7.30;99.90;;;;;;5113719;28;19919;-70
2021/12/25 00:03:30;;;;;;;;;;;7.30;99.90;;;;;;5113041;28;19953;-70
2021/12/25 00:05:56;;;;;;;;;;;7.40;99.90;;;;;;5113706;28;19907;-70
2021/12/25 00:08:22;;;;;;;;;;;;;;;;;;5112754;28;20364;-72
2021/12/25 00:10:47;;;;;;;;;;;7.50;99.90;;;;;;5130095;27;19923;-70
2021/12/25 00:13:14;;;;;;;;;;;7.50;99.90;;;;;;5134018;27;20355;-70
2021/12/25 00:15:40;;;;;;;;;;;7.50;99.90;;;;;;5133486;27;19908;-70
2021/12/25 00:18:05;;;;;;;;;;;7.50;99.90;;;;;;5115614;28;19956;-70
2021/12/25 00:20:31;;;;;;;;;;;7.50;99.90;;;;;;5133487;27;19907;-70
2021/12/25 00:22:56;;;;;;;;;;;7.50;99.90;;;;;;5134023;27;19914;-70
2021/12/25 00:25:23;;;;;;;;;;;;;;;;;;5133353;27;20325;-73
2021/12/25 00:27:58;;;;;;;;;;;7.40;99.90;;;;;;5133588;28;20010;-70
2021/12/25 00:30:38;;;;;;;;;;;7.40;99.90;;;;;;5133415;28;19915;-70
2021/12/25 00:33:18;;;;;;;;;;;7.40;99.90;;;;;;5133922;28;19943;-70
2021/12/25 00:35:43;;;;;;;;;;;7.40;99.90;;;;;;5133358;28;19911;-70
2021/12/25 00:38:09;;;;;;;;;;;7.30;99.90;;;;;;5133797;28;19962;-70
2021/12/25 00:40:34;;;;;;;;;;;7.20;99.90;;;;;;5117763;28;19908;-70
2021/12/25 00:43:00;;;;;;;;;;;7.30;99.90;;;;;;5113587;28;19915;-70
2021/12/25 00:45:25;;;;;;;;;;;7.30;99.90;;;;;;5133252;28;19908;-70
2021/12/25 00:47:51;;;;;;;;;;;7.30;99.90;;;;;;5133520;28;19918;-70
2021/12/25 00:50:17;;;;;;;;;;;;;;;;;;5133546;28;19960;-70
2021/12/25 00:52:42;;;;;;;;;;;7.30;99.90;;;;;;5132895;28;19908;-70
2021/12/25 00:55:08;;;;;;;;;;;7.30;99.90;;;;;;5133767;28;19915;-70
2021/12/25 00:57:34;;;;;;;;;;;7.30;99.90;;;;;;5133081;28;19908;-70
2021/12/25 00:59:59;;;;;;;;;;;7.30;99.90;;;;;;5133717;28;19916;-70
2021/12/25 01:02:25;;;;;;;;;;;7.30;99.90;;;;;;5133067;28;19907;-71
2021/12/25 01:04:50;;;;;;;;;;;7.20;99.90;;;;;;5133871;28;20380;-70
2021/12/25 01:07:16;;;;;;;;;;;7.20;99.90;;;;;;5133634;28;19911;-70
2021/12/25 01:09:41;;;;;;;;;;;7.20;99.90;;;;;;5122618;28;20336;-70
2021/12/25 01:12:07;;;;;;;;;;;7.30;99.90;;;;;;5112973;28;20010;-70
2021/12/25 01:14:48;;;;;;;;;;;7.30;99.90;;;;;;5112561;28;19933;-70
2021/12/25 01:30:26;;;;;;;;;;;7.00;99.90;;;;;;5116624;28;20022;-70
2021/12/25 01:35:40;;;;;;;;;;;7.00;99.90;;;;;;5116715;28;19908;-70
2021/12/25 01:41:10;;;;;;;;;;;7.00;99.90;;;;;;5135052;27;19915;-70
2021/12/25 01:49:04;;;;;;;;;;;7.00;99.90;;;;;;5136751;27;20282;-70
2021/12/25 01:51:31;;;;;;;;;;;7.00;99.90;;;;;;5135968;27;19912;-70
2021/12/25 01:53:56;;;;;;;;;;;7.00;99.90;;;;;;5136984;27;19969;-70
2021/12/25 01:56:22;;;;;;;;;;;7.10;99.90;;;;;;5136745;27;20316;-70
2021/12/25 01:58:48;;;;;;;;;;;7.00;99.90;;;;;;5136268;27;19938;-70
2021/12/25 02:01:13;;;;;;;;;;;7.00;99.90;;;;;;5136792;27;20375;-70
2021/12/25 02:03:40;;;;;;;;;;;;;;;;;;5136310;27;19999;-70
2021/12/25 02:06:08;;;;;;;;;;;6.90;99.90;;;;;;5135617;27;19911;-70
2021/12/25 02:08:34;;;;;;;;;;;6.90;99.90;;;;;;5135240;27;19915;-70
2021/12/25 02:11:00;;;;;;;;;;;6.90;99.90;;;;;;5136505;27;20022;-70
2021/12/25 02:13:26;;;;;;;;;;;6.90;99.90;;;;;;5136454;27;20351;-70
2021/12/25 02:15:54;;;;;;;;;;;6.90;99.90;;;;;;5135775;27;19918;-70
2021/12/25 02:19:09;;;;;;;;;;;6.70;99.90;;;;;;5136049;27;20279;-70
2021/12/25 02:21:12;;;;;;;;;;;6.60;99.90;;;;;;5118389;27;19967;-70
2021/12/25 02:23:38;;;;;;;;;;;6.60;99.90;;;;;;5135445;27;20439;-70
2021/12/25 02:26:04;;;;;;;;;;;6.50;99.90;;;;;;5136101;27;19939;-70
2021/12/25 02:28:30;;;;;;;;;;;;;;;;;;5135215;27;19919;-71
2021/12/25 02:30:58;;;;;;;;;;;6.50;99.90;;;;;;5136065;27;19918;-70
2021/12/25 02:33:25;;;;;;;;;;;6.40;99.90;;;;;;5135760;27;19914;-70
2021/12/25 02:35:50;;;;;;;;;;;6.30;99.90;;;;;;5126288;27;19912;-70
2021/12/25 02:38:16;;;;;;;;;;;;;;;;;;5097298;28;20366;-70
2021/12/25 02:40:42;;;;;;;;;;;6.20;99.90;;;;;;5114710;28;19911;-70
2021/12/25 02:43:08;;;;;;;;;;;6.20;99.90;;;;;;5115183;28;19974;-70
2021/12/25 02:45:33;;;;;;;;;;;6.20;99.90;;;;;;5114341;28;19907;-71
2021/12/25 02:48:04;;;;;;;;;;;6.20;99.90;;;;;;5115266;28;19994;-70
2021/12/25 02:50:30;;;;;;;;;;;;;;;;;;5115170;28;19908;-70
2021/12/25 02:52:57;;;;;;;;;;;6.10;99.90;;;;;;5115068;28;20316;-70
2021/12/25 02:55:23;;;;;;;;;;;6.10;99.90;;;;;;5115041;28;19951;-70
2021/12/25 02:57:52;;;;;;;;;;;6.00;99.90;;;;;;5114313;28;19926;-70
2021/12/25 03:00:25;;;;;;;;;;;6.00;99.90;;;;;;5114999;28;19981;-70
2021/12/25 03:02:50;;;;;;;;;;;6.10;99.90;;;;;;5114317;28;20379;-71
2021/12/25 03:05:16;;;;;;;;;;;6.00;99.90;;;;;;5121220;27;19907;-70
2021/12/25 03:07:42;;;;;;;;;;;6.10;99.90;;;;;;5134678;27;20423;-71
2021/12/25 03:10:08;;;;;;;;;;;6.10;99.90;;;;;;5135252;27;19927;-70
2021/12/25 03:12:48;;;;;;;;;;;6.10;99.90;;;;;;5134681;27;19908;-71
2021/12/25 03:15:25;;;;;;;;;;;6.20;99.90;;;;;;5135245;27;19908;-70
2021/12/25 03:17:51;;;;;;;;;;;6.10;99.90;;;;;;5134617;27;19908;-71
2021/12/25 03:20:17;;;;;;;;;;;6.00;99.90;;;;;;5135193;27;20268;-71
2021/12/25 03:22:42;;;;;;;;;;;6.00;99.90;;;;;;5134407;27;19907;-71
2021/12/25 03:25:08;;;;;;;;;;;6.00;99.90;;;;;;5134712;27;19907;-70
2021/12/25 03:27:36;;;;;;;;;;;6.00;99.90;;;;;;5133713;27;19908;-71
2021/12/25 03:30:02;;;;;;;;;;;;;;;;;;5134840;27;19926;-70
2021/12/25 03:32:27;;;;;;;;;;;6.10;99.90;;;;;;5134517;27;19908;-70
2021/12/25 03:34:53;;;;;;;;;;;6.10;99.90;;;;;;5130828;27;19922;-71
2021/12/25 03:37:18;;;;;;;;;;;6.10;99.90;;;;;;5113861;28;19919;-70
2021/12/25 03:39:44;;;;;;;;;;;6.10;99.90;;;;;;5113143;28;19968;-71
2021/12/25 03:42:09;;;;;;;;;;;6.00;99.90;;;;;;5114287;28;19966;-71
2021/12/25 03:44:35;;;;;;;;;;;6.00;99.90;;;;;;5113429;28;20332;-71
2021/12/25 03:47:11;;;;;;;;;;;6.10;99.90;;;;;;5114039;28;19907;-71
2021/12/25 03:58:03;;;;;;;;;;;6.30;99.90;;;;;;5114101;28;20000;-71
2021/12/25 04:00:31;;;;;;;;;;;6.20;99.90;;;;;;5113847;28;19912;-70
2021/12/25 04:03:02;;;;;;;;;;;6.20;99.90;;;;;;5113250;28;19915;-71
2021/12/25 04:05:31;;;;;;;;;;;6.00;99.90;;;;;;5123546;27;19957;-71
2021/12/25 04:10:25;;;;;;;;;;;6.00;99.90;;;;;;5134233;27;19907;-71
2021/12/25 04:12:51;;;;;;;;;;;5.90;99.90;;;;;;5133660;27;19915;-71
2021/12/25 04:15:16;;;;;;;;;;;5.90;99.90;;;;;;5134302;27;20271;-71
2021/12/25 04:17:42;;;;;;;;;;;5.80;99.90;;;;;;5133541;27;19911;-71
2021/12/25 04:20:08;;;;;;;;;;;5.70;99.90;;;;;;5134095;27;20367;-71
2021/12/25 04:22:43;;;;;;;;;;;5.60;99.90;;;;;;5134123;27;19912;-71
2021/12/25 04:25:09;;;;;;;;;;;5.50;99.90;;;;;;5134209;27;20048;-71
2021/12/25 04:27:36;;;;;;;;;;;5.50;99.90;;;;;;5133774;27;19998;-71
2021/12/25 04:30:15;;;;;;;;;;;5.50;99.90;;;;;;5133896;28;20412;-71
2021/12/25 04:49:24;;;;;;;;;;;;;;;;;;5112439;28;20412;-71
2021/12/25 05:05:17;;;;;;;;;;;4.90;99.90;;;;;;5126820;27;19954;-72
2021/12/25 05:07:42;;;;;;;;;;;4.80;99.90;;;;;;5136832;27;19916;-72
2021/12/25 05:10:08;;;;;;;;;;;4.90;99.90;;;;;;5137629;27;19968;-72
2021/12/25 05:12:34;;;;;;;;;;;;;;;;;;5137639;27;19907;-71
2021/12/25 05:14:59;;;;;;;;;;;4.90;99.90;;;;;;5136965;27;19912;-72
2021/12/25 05:17:25;;;;;;;;;;;4.90;99.90;;;;;;5137541;27;19907;-71
2021/12/25 05:19:50;;;;;;;;;;;4.80;99.90;;;;;;5136893;27;20378;-72
2021/12/25 05:22:17;;;;;;;;;;;4.80;99.90;;;;;;5137448;27;19907;-71
2021/12/25 05:24:43;;;;;;;;;;;;;;;;;;5118401;27;20271;-72
2021/12/25 05:27:12;;;;;;;;;;;4.80;99.90;;;;;;5118885;27;19907;-72
2021/12/25 05:29:38;;;;;;;;;;;4.80;99.90;;;;;;5137173;27;19919;-71
2021/12/25 05:32:03;;;;;;;;;;;4.70;99.90;;;;;;5136693;27;20351;-71
2021/12/25 05:34:29;;;;;;;;;;;4.60;99.90;;;;;;5112728;28;19912;-71
2021/12/25 05:36:55;;;;;;;;;;;4.60;99.90;;;;;;5115989;28;19968;-71
2021/12/25 05:39:20;;;;;;;;;;;4.60;99.90;;;;;;5116541;28;19908;-71
2021/12/25 05:41:46;;;;;;;;;;;4.60;99.90;;;;;;5115917;28;20379;-71
2021/12/25 05:44:11;;;;;;;;;;;4.50;99.90;;;;;;5133486;27;19915;-71
2021/12/25 05:46:37;;;;;;;;;;;4.60;99.90;;;;;;5136895;27;19954;-71
2021/12/25 05:49:02;;;;;;;;;;;4.50;99.90;;;;;;5136559;27;19915;-71
2021/12/25 05:51:28;;;;;;;;;;;4.50;99.90;;;;;;5136943;27;20331;-71
2021/12/25 05:53:54;;;;;;;;;;;4.40;99.90;;;;;;5136241;27;19914;-71
2021/12/25 05:56:19;;;;;;;;;;;4.40;99.90;;;;;;5136802;27;19912;-71
2021/12/25 05:58:45;;;;;;;;;;;4.40;99.90;;;;;;5135897;27;20256;-72
2021/12/25 06:01:11;;;;;;;;;;;4.40;99.90;;;;;;5136204;27;20359;-71
2021/12/25 06:03:37;;;;;;;;;;;4.40;99.90;;;;;;5136636;27;20002;-71
2021/12/25 06:06:02;;;;;;;;;;;4.30;99.90;;;;;;5116652;27;19951;-71
2021/12/25 06:08:28;;;;;;;;;;;4.30;99.90;;;;;;5115955;28;19960;-71
2021/12/25 06:10:54;;;;;;;;;;;4.20;99.90;;;;;;5115319;28;20000;-71
2021/12/25 06:13:21;;;;;;;;;;;4.10;99.90;;;;;;5115905;28;19907;-71
2021/12/25 06:15:47;;;;;;;;;;;4.10;99.90;;;;;;5115343;28;19931;-71
2021/12/25 06:18:13;;;;;;;;;;;4.00;99.90;;;;;;5115850;28;20360;-71
2021/12/25 06:20:39;;;;;;;;;;;4.00;99.90;;;;;;5115834;28;20314;-71
2021/12/25 06:23:04;;;;;;;;;;;4.00;99.90;;;;;;5115078;28;19915;-71
2021/12/25 06:25:30;;;;;;;;;;;4.00;99.90;;;;;;5115645;28;19908;-71
2021/12/25 06:27:56;;;;;;;;;;;4.00;99.90;;;;;;5114650;28;20013;-71
2021/12/25 06:30:21;;;;;;;;;;;3.90;99.90;;;;;;5097603;28;20340;-71
2021/12/25 06:32:47;;;;;;;;;;;4.00;99.90;;;;;;5115283;28;20002;-72
2021/12/25 06:35:12;;;;;;;;;;;4.00;99.90;;;;;;5098233;28;19916;-71
2021/12/25 06:37:41;;;;;;;;;;;3.90;99.90;;;;;;5132206;27;19977;-71
2021/12/25 06:40:08;;;;;;;;;;;3.80;99.90;;;;;;5135368;27;19931;-71
2021/12/25 06:42:33;;;;;;;;;;;3.90;99.90;;;;;;5135803;27;19994;-71
2021/12/25 06:44:59;;;;;;;;;;;3.70;99.90;;;;;;5116661;27;20387;-71
2021/12/25 06:47:24;;;;;;;;;;;3.80;99.90;;;;;;5135657;27;19907;-71
2021/12/25 06:49:50;;;;;;;;;;;3.70;99.90;;;;;;5134973;27;19916;-71
2021/12/25 06:52:15;;;;;;;;;;;3.70;99.90;;;;;;5135579;27;19930;-71
2021/12/25 06:54:41;;;;;;;;;;;3.70;99.90;;;;;;5135580;27;19955;-71
2021/12/25 06:57:07;;;;;;;;;;;3.60;99.90;;;;;;5116492;27;20347;-71
2021/12/25 06:59:32;;;;;;;;;;;3.60;99.90;;;;;;5135635;27;19954;-71
2021/12/25 07:01:58;;;;;;;;;;;3.60;99.90;;;;;;5134950;27;19912;-71
2021/12/25 07:04:23;;;;;;;;;;;3.50;99.90;;;;;;5128368;27;19916;-71
2021/12/25 07:06:49;;;;;;;;;;;3.60;99.90;;;;;;5114283;28;20002;-71
2021/12/25 07:09:14;;;;;;;;;;;3.60;99.90;;;;;;5114640;28;19973;-71
2021/12/25 07:11:40;;;;;;;;;;;3.70;99.90;;;;;;5114741;28;19908;-71
2021/12/25 07:14:08;;;;;;;;;;;3.50;99.90;;;;;;5113224;28;20543;-71
2021/12/25 07:16:33;;;;;;;;;;;3.50;99.90;;;;;;5114619;28;19915;-70
2021/12/25 07:18:59;;;;;;;;;;;3.40;99.90;;;;;;5114052;28;20267;-71
2021/12/25 07:21:25;;;;;;;;;;;3.40;99.90;;;;;;5114572;28;20356;-71
2021/12/25 07:23:50;;;;;;;;;;;3.40;99.90;;;;;;5113872;28;19938;-71
2021/12/25 07:26:19;;;;;;;;;;;3.50;99.90;;;;;;5114594;28;19908;-70
2021/12/25 07:28:45;;;;;;;;;;;3.50;99.90;;;;;;5113851;28;20041;-70
2021/12/25 07:31:11;;;;;;;;;;;3.60;99.90;;;;;;5113796;28;19912;-71
2021/12/25 07:33:37;;;;;;;;;;;3.70;99.90;;;;;;5113996;27;19915;-71
2021/12/25 07:36:03;;;;;;;;;;;3.50;99.90;;;;;;5133868;27;20006;-71
2021/12/25 07:38:28;;;;;;;;;;;3.70;99.90;;;;;;5134396;27;20011;-71
2021/12/25 07:40:54;;;;;;;;;;;;;;;;;;5133397;27;19946;-71
2021/12/25 07:43:19;;;;;;;;;;;3.70;99.90;;;;;;5134333;27;19945;-71
2021/12/25 07:45:47;;;;;;;;;;;3.70;99.90;;;;;;5134609;27;20416;-71
2021/12/25 07:48:13;;;;;;;;;;;3.60;99.90;;;;;;5133844;27;19919;-71
2021/12/25 07:50:40;;;;;;;;;;;3.70;99.90;;;;;;5134498;27;19908;-70
2021/12/25 07:53:06;;;;;;;;;;;;;;;;;;5120920;27;20418;-71
2021/12/25 07:55:32;;;;;;;;;;;3.70;99.90;;;;;;5113640;28;19908;-70
2021/12/25 07:57:58;;;;;;;;;;;3.50;99.90;;;;;;5113168;28;19912;-71
2021/12/25 08:00:24;;;;;;;;;;;3.70;99.90;;;;;;5113782;28;19956;-71
2021/12/25 08:02:50;;;;;;;;;;;;;;;;;;5113148;28;19908;-72
2021/12/25 08:05:15;;;;;;;;;;;3.70;99.90;;;;;;5114975;27;19923;-71
2021/12/25 08:07:41;;;;;;;;;;;3.60;99.90;;;;;;5113627;27;19914;-71
2021/12/25 08:10:13;;;;;;;;;;;3.70;99.90;;;;;;5132675;27;19942;-71
2021/12/25 08:12:44;;;;;;;;;;;3.50;99.90;;;;;;5115846;27;19951;-70
2021/12/25 08:15:10;;;;;;;;;;;3.60;99.90;;;;;;5133679;27;19907;-71
2021/12/25 08:17:36;;;;;;;;;;;3.50;99.90;;;;;;5134177;27;19907;-71
2021/12/25 08:20:01;;;;;;;;;;;3.60;99.90;;;;;;5117070;27;19973;-71
2021/12/25 08:22:27;;;;;;;;;;;3.50;99.90;;;;;;5113581;28;20348;-71
2021/12/25 08:24:52;;;;;;;;;;;3.50;99.90;;;;;;5112784;28;19919;-72
2021/12/25 08:27:18;;;;;;;;;;;3.50;99.90;;;;;;5113520;28;20001;-71
2021/12/25 08:29:43;;;;;;;;;;;3.30;99.90;;;;;;5123508;28;19920;-71
2021/12/25 08:32:09;;;;;;;;;;;;;;;;;;5133629;28;19912;-71
2021/12/25 08:34:37;;;;;;;;;;;3.40;99.90;;;;;;5133672;28;19907;-71
2021/12/25 08:37:02;;;;;;;;;;;3.60;99.90;;;;;;5133350;28;19912;-71
2021/12/25 08:39:28;;;;;;;;;;;3.30;99.90;;;;;;5127805;28;19918;-71
2021/12/25 08:42:01;;;;;;;;;;;;;;;;;;5112763;28;19908;-71
2021/12/25 08:44:39;;;;;;;;;;;3.20;99.90;;;;;;5131355;28;19934;-70
2021/12/25 08:47:06;;;;;;;;;;;3.20;99.90;;;;;;5133215;28;19914;-71
2021/12/25 08:49:33;;;;;;;;;;;3.10;99.90;;;;;;5133634;28;19923;-71
2021/12/25 08:52:00;;;;;;;;;;;3.00;99.90;;;;;;5132768;28;19947;-71
2021/12/25 08:54:26;;;;;;;;;;;3.00;99.90;;;;;;5099705;28;20410;-71
2021/12/25 08:56:52;;;;;;;;;;;;;;;;;;5112853;28;19951;-71
2021/12/25 08:59:18;;;;;;;;;;;3.00;99.90;;;;;;5121792;28;19964;-70
2021/12/25 09:01:43;;;;;;;;;;;3.10;99.90;;;;;;5117738;28;20363;-71
2021/12/25 09:04:09;;;;;;;;;;;3.10;99.90;;;;;;5115753;28;19937;-72
2021/12/25 09:06:34;;;;;;;;;;;3.10;99.90;;;;;;5133634;28;19960;-72
2021/12/25 09:09:00;;;;;;;;;;;3.10;99.90;;;;;;5132803;28;19922;-71
2021/12/25 09:11:26;;;;;;;;;;;3.00;99.90;;;;;;5133565;28;19911;-69
2021/12/25 09:13:52;;;;;;;;;;;3.00;99.90;;;;;;5133657;28;20236;-68
2021/12/25 09:16:18;;;;;;;;;;;;;;;;;;5113746;28;20374;-69
2021/12/25 09:18:44;;;;;;;;;;;;;;;;;;5113188;28;19915;-69
2021/12/25 09:21:10;;;;;;;;;;;3.00;99.90;;;;;;5112322;28;19912;-69
2021/12/25 09:23:35;;;;;;;;;;;2.90;99.90;;;;;;5113006;28;19915;-69
2021/12/25 09:26:01;;;;;;;;;;;2.80;99.90;;;;;;5125449;28;19911;-69
2021/12/25 09:28:27;;;;;;;;;;;2.80;99.90;;;;;;5129912;28;20378;-69
2021/12/25 09:30:52;;;;;;;;;;;2.80;99.90;;;;;;5112578;28;19923;-69
2021/12/25 09:33:18;;;;;;;;;;;2.90;99.90;;;;;;5112250;28;19908;-69
2021/12/25 09:35:43;;;;;;;;;;;;;;;;;;5113234;28;20328;-68
2021/12/25 09:38:09;;;;;;;;;;;2.90;99.90;;;;;;5097553;28;19908;-69
2021/12/25 09:40:35;;;;;;;;;;;;;;;;;;5134618;27;19919;-68
2021/12/25 09:43:00;;;;;;;;;;;2.90;99.90;;;;;;5136387;27;20355;-69
2021/12/25 09:45:26;;;;;;;;;;;2.90;99.90;;;;;;5136918;27;19907;-69
2021/12/25 09:47:52;;;;;;;;;;;3.00;99.90;;;;;;5136995;27;19908;-69
2021/12/25 09:50:17;;;;;;;;;;;2.90;99.90;;;;;;5135501;27;20287;-69
2021/12/25 09:52:43;;;;;;;;;;;2.90;99.90;;;;;;5137097;27;19954;-69
2021/12/25 09:55:10;;;;;;;;;;;2.90;99.90;;;;;;5136242;27;20002;-69
2021/12/25 09:57:36;;;;;;;;;;;2.80;99.90;;;;;;5136599;27;19969;-69
2021/12/25 10:00:21;;;;;;;;;;;2.90;99.90;;;;;;5127919;27;20010;-69
2021/12/25 10:02:50;;;;;;;;;;;3.00;99.90;;;;;;5116073;27;19919;-69
2021/12/25 10:05:23;;;;;;;;;;;3.00;99.90;;;;;;5115417;28;19914;-67
2021/12/25 10:07:59;;;;;;;;;;;2.90;99.90;;;;;;5116067;28;19918;-67
2021/12/25 10:10:24;;;;;;;;;;;2.90;99.90;;;;;;5116979;27;19920;-67
2021/12/25 10:12:51;;;;;;;;;;;2.90;99.90;;;;;;5115880;28;19908;-69
2021/12/25 10:15:27;;;;;;;;;;;3.00;99.90;;;;;;5115297;28;19912;-69
2021/12/25 10:17:54;;;;;;;;;;;3.10;99.90;;;;;;5116214;27;19916;-69
2021/12/25 10:20:25;;;;;;;;;;;3.10;99.90;;;;;;5135739;27;20014;-69
2021/12/25 10:23:01;;;;;;;;;;;3.00;99.90;;;;;;5132383;27;19913;-69
2021/12/25 10:25:35;;;;;;;;;;;3.10;99.90;;;;;;5134380;27;19915;-69
2021/12/25 10:28:06;;;;;;;;;;;3.10;99.90;;;;;;5135299;27;19923;-69
2021/12/25 10:30:42;;;;;;;;;;;3.10;99.90;;;;;;5136193;27;19920;-70
2021/12/25 10:33:21;;;;;;;;;;;3.10;99.90;;;;;;5124774;27;20368;-69
2021/12/25 10:35:46;;;;;;;;;;;3.10;99.90;;;;;;5115518;28;19908;-69
2021/12/25 10:38:12;;;;;;;;;;;3.10;99.90;;;;;;5114813;28;20374;-69
2021/12/25 10:40:38;;;;;;;;;;;3.00;99.90;;;;;;5115406;28;20411;-69
2021/12/25 10:43:04;;;;;;;;;;;3.10;99.90;;;;;;5114817;27;19947;-69
2021/12/25 10:45:31;;;;;;;;;;;;;;;;;;5115311;28;19947;-69
2021/12/25 10:48:14;;;;;;;;;;;3.10;99.90;;;;;;5131983;27;19918;-69
2021/12/25 10:50:41;;;;;;;;;;;;;;;;;;5135725;27;19922;-69
2021/12/25 10:53:22;;;;;;;;;;;3.10;99.90;;;;;;5134796;27;20394;-69
2021/12/25 10:55:47;;;;;;;;;;;3.00;99.90;;;;;;5116857;27;19994;-69
2021/12/25 10:58:17;;;;;;;;;;;3.20;99.90;;;;;;5118291;27;19958;-69
2021/12/25 11:00:48;;;;;;;;;;;3.30;99.90;;;;;;5115093;28;19926;-69
2021/12/25 11:03:13;;;;;;;;;;;3.40;99.90;;;;;;5114069;28;20367;-69
2021/12/25 11:05:43;;;;;;;;;;;3.60;99.90;;;;;;5114890;28;19995;-69
2021/12/25 11:08:19;;;;;;;;;;;3.50;99.90;;;;;;5126664;27;19972;-69
2021/12/25 11:10:46;;;;;;;;;;;3.50;99.90;;;;;;5135067;27;19911;-69
2021/12/25 11:13:16;;;;;;;;;;;3.40;99.90;;;;;;5134698;27;20002;-69
2021/12/25 11:15:42;;;;;;;;;;;;;;;;;;5135287;27;19946;-69
2021/12/25 11:18:09;;;;;;;;;;;3.40;99.90;;;;;;5124515;27;19919;-69
2021/12/25 11:20:36;;;;;;;;;;;3.20;99.90;;;;;;5114704;28;19943;-69
2021/12/25 11:23:02;;;;;;;;;;;;;;;;;;5113946;28;20375;-73
2021/12/25 11:25:29;;;;;;;;;;;3.20;99.90;;;;;;5114458;28;19935;-68
2021/12/25 11:27:55;;;;;;;;;;;3.20;99.90;;;;;;5118533;27;20355;-68
2021/12/25 11:30:22;;;;;;;;;;;3.40;99.90;;;;;;5115903;27;19924;-68
2021/12/25 11:32:49;;;;;;;;;;;3.50;99.90;;;;;;5116274;28;19987;-68
2021/12/25 11:35:15;;;;;;;;;;;;;;;;;;5095525;28;20378;-69
2021/12/25 11:37:41;;;;;;;;;;;3.20;99.90;;;;;;5114250;28;19908;-69
2021/12/25 11:40:07;;;;;;;;;;;3.50;99.90;;;;;;5113661;28;19914;-69
2021/12/25 11:42:34;;;;;;;;;;;3.50;99.90;;;;;;5115186;27;20312;-69
2021/12/25 11:45:20;;;;;;;;;;;3.20;99.90;;;;;;5114148;28;20006;-68
2021/12/25 11:47:46;;;;;;;;;;;3.10;99.90;;;;;;5113187;28;19912;-69
2021/12/25 11:50:12;;;;;;;;;;;3.00;99.90;;;;;;5095114;28;19959;-68
2021/12/25 11:52:45;;;;;;;;;;;3.00;99.90;;;;;;5125120;27;19958;-68
2021/12/25 11:58:37;;;;;;;;;;;3.00;99.90;;;;;;5103895;27;20256;-69
2021/12/25 12:01:03;;;;;;;;;;;;;;;;;;5134325;27;19919;-69
2021/12/25 12:03:29;;;;;;;;;;;;;;;;;;5118421;27;19915;-69
2021/12/25 12:05:55;;;;;;;;;;;2.90;99.90;;;;;;5114017;28;20363;-69
2021/12/25 12:08:20;;;;;;;;;;;2.90;99.90;;;;;;5094765;28;19908;-69
2021/12/25 12:10:46;;;;;;;;;;;;;;;;;;5113685;28;20002;-70
2021/12/25 12:13:16;;;;;;;;;;;2.90;99.90;;;;;;5104293;27;19908;-70
2021/12/25 12:15:46;;;;;;;;;;;3.10;99.90;;;;;;5133858;27;19947;-69
2021/12/25 12:18:24;;;;;;;;;;;3.40;99.90;;;;;;5115264;27;19937;-69
2021/12/25 12:20:50;;;;;;;;;;;3.50;99.90;;;;;;5134148;27;19911;-69
2021/12/25 12:23:41;;;;;;;;;;;3.30;99.90;;;;;;5125833;27;19907;-70
2021/12/25 12:26:13;;;;;;;;;;;3.30;99.90;;;;;;5113013;28;19912;-70
2021/12/25 12:28:42;;;;;;;;;;;3.10;99.90;;;;;;5113430;28;20014;-69
2021/12/25 12:31:28;;;;;;;;;;;3.20;99.90;;;;;;5112800;28;19912;-70
2021/12/25 12:33:53;;;;;;;;;;;3.10;99.90;;;;;;5123009;28;19964;-70
2021/12/25 12:36:21;;;;;;;;;;;3.20;99.90;;;;;;5133393;28;19907;-70
2021/12/25 12:38:51;;;;;;;;;;;3.00;99.90;;;;;;5114184;28;19947;-70
2021/12/25 12:41:27;;;;;;;;;;;3.30;99.90;;;;;;5112884;28;20013;-70
2021/12/25 12:43:52;;;;;;;;;;;3.40;99.90;;;;;;5113379;28;19930;-70
2021/12/25 12:46:19;;;;;;;;;;;3.50;99.90;;;;;;5113069;28;19908;-70
2021/12/25 12:49:04;;;;;;;;;;;3.40;99.90;;;;;;5129337;28;19919;-70
2021/12/25 12:51:29;;;;;;;;;;;3.30;99.90;;;;;;5133221;28;19907;-70
2021/12/25 12:53:56;;;;;;;;;;;;;;;;;;5133814;28;19914;-70
2021/12/25 12:56:22;;;;;;;;;;;3.40;99.90;;;;;;5132904;28;19911;-70
2021/12/25 12:58:52;;;;;;;;;;;3.20;99.90;;;;;;5119867;28;19912;-70
2021/12/25 13:01:17;;;;;;;;;;;3.20;99.90;;;;;;5112576;28;19912;-70
2021/12/25 13:03:43;;;;;;;;;;;3.10;99.90;;;;;;5112892;28;19958;-70
2021/12/25 13:06:14;;;;;;;;;;;;;;;;;;5117539;28;20401;-71
2021/12/25 13:08:42;;;;;;;;;;;3.20;99.90;;;;;;5133593;28;19922;-70
2021/12/25 13:11:19;;;;;;;;;;;;;;;;;;5115266;28;19918;-74
2021/12/25 13:13:54;;;;;;;;;;;3.10;99.90;;;;;;5117232;28;19907;-70
2021/12/25 13:16:23;;;;;;;;;;;3.00;99.90;;;;;;5116575;28;19915;-70
2021/12/25 13:18:49;;;;;;;;;;;3.10;99.90;;;;;;5117195;28;19908;-70
2021/12/25 13:21:15;;;;;;;;;;;;;;;;;;5131970;27;20367;-70
2021/12/25 13:23:51;;;;;;;;;;;;;;;;;;5116835;28;19908;-70
2021/12/25 13:26:19;;;;;;;;;;;3.20;99.90;;;;;;5116162;28;19915;-70
2021/12/25 13:28:46;;;;;;;;;;;3.30;99.90;;;;;;5116099;28;20280;-70
2021/12/25 13:31:18;;;;;;;;;;;3.30;99.90;;;;;;5129113;27;19922;-70
2021/12/25 13:33:48;;;;;;;;;;;3.10;99.90;;;;;;5137370;27;19907;-70
2021/12/25 13:36:15;;;;;;;;;;;3.10;99.90;;;;;;5136303;27;20366;-70
2021/12/25 13:38:49;;;;;;;;;;;3.00;99.90;;;;;;5137288;27;19907;-70
2021/12/25 13:41:26;;;;;;;;;;;3.10;99.90;;;;;;5136560;27;19907;-70
2021/12/25 13:44:02;;;;;;;;;;;2.90;99.90;;;;;;5137187;27;19908;-70
2021/12/25 13:46:35;;;;;;;;;;;2.90;99.90;;;;;;5136448;27;19962;-70
2021/12/25 13:49:00;;;;;;;;;;;2.90;99.90;;;;;;5137037;27;19916;-70
2021/12/25 13:51:26;;;;;;;;;;;2.90;99.90;;;;;;5136280;27;20023;-70
2021/12/25 13:53:51;;;;;;;;;;;3.00;99.90;;;;;;5137117;27;20010;-70
2021/12/25 13:56:17;;;;;;;;;;;2.90;99.90;;;;;;5136161;27;19972;-70
2021/12/25 13:58:43;;;;;;;;;;;3.00;99.90;;;;;;5137205;27;20297;-70
2021/12/25 14:01:14;;;;;;;;;;;3.20;99.90;;;;;;5123782;27;19915;-70
2021/12/25 14:03:39;;;;;;;;;;;3.00;99.90;;;;;;5116342;28;19911;-70
2021/12/25 14:06:05;;;;;;;;;;;2.90;99.90;;;;;;5116007;28;19908;-69
2021/12/25 14:08:30;;;;;;;;;;;2.90;99.90;;;;;;5115350;28;20636;-69
2021/12/25 14:10:59;;;;;;;;;;;2.90;99.90;;;;;;5115999;28;19915;-71
2021/12/25 14:13:25;;;;;;;;;;;2.80;99.90;;;;;;5115606;28;19953;-71
2021/12/25 14:15:53;;;;;;;;;;;2.80;99.90;;;;;;5097576;28;19908;-71
2021/12/25 14:18:22;;;;;;;;;;;2.70;99.90;;;;;;5115192;28;19953;-71
2021/12/25 14:20:48;;;;;;;;;;;2.80;99.90;;;;;;5115734;28;19950;-71
2021/12/25 14:23:21;;;;;;;;;;;2.70;99.90;;;;;;5114802;28;19907;-71
2021/12/25 14:25:54;;;;;;;;;;;2.70;99.90;;;;;;5115757;28;19912;-71
2021/12/25 14:28:22;;;;;;;;;;;2.80;99.90;;;;;;5114661;28;19920;-71
2021/12/25 14:30:59;;;;;;;;;;;2.70;99.90;;;;;;5126934;27;20333;-71
2021/12/25 14:33:25;;;;;;;;;;;2.70;99.90;;;;;;5135131;27;19977;-71
2021/12/25 14:35:50;;;;;;;;;;;2.80;99.90;;;;;;5136266;27;20359;-69
2021/12/25 14:38:16;;;;;;;;;;;2.80;99.90;;;;;;5135790;27;20398;-69
2021/12/25 14:40:46;;;;;;;;;;;2.70;99.90;;;;;;5136081;27;19922;-69
2021/12/25 14:43:20;;;;;;;;;;;2.70;99.90;;;;;;5135677;27;20450;-69
2021/12/25 14:45:50;;;;;;;;;;;2.60;99.90;;;;;;5136058;27;19915;-69
2021/12/25 14:48:48;;;;;;;;;;;2.70;99.90;;;;;;5116838;27;20282;-70
2021/12/25 14:51:14;;;;;;;;;;;;;;;;;;5078866;27;19919;-69
2021/12/25 14:53:58;;;;;;;;;;;2.80;99.90;;;;;;5135845;27;19953;-69
2021/12/25 14:56:24;;;;;;;;;;;2.70;99.90;;;;;;5135039;27;19908;-70
2021/12/25 14:58:51;;;;;;;;;;;2.70;99.90;;;;;;5135666;27;20418;-70
2021/12/25 15:01:18;;;;;;;;;;;2.70;99.90;;;;;;5118793;27;19916;-70
2021/12/25 15:03:45;;;;;;;;;;;2.70;99.90;;;;;;5115035;28;19918;-69
2021/12/25 15:06:21;;;;;;;;;;;2.70;99.90;;;;;;5114944;28;19908;-70
2021/12/25 15:08:58;;;;;;;;;;;2.70;99.90;;;;;;5114805;28;19965;-69
2021/12/25 15:11:23;;;;;;;;;;;2.70;99.90;;;;;;5113966;28;19923;-69
2021/12/25 15:13:59;;;;;;;;;;;2.80;99.90;;;;;;5114465;28;19912;-70
2021/12/25 15:16:39;;;;;;;;;;;2.70;99.90;;;;;;5114174;28;19908;-69
2021/12/25 15:19:05;;;;;;;;;;;2.70;99.90;;;;;;5114697;28;19908;-69
2021/12/25 15:21:40;;;;;;;;;;;2.60;99.90;;;;;;5113997;28;20268;-69
2021/12/25 15:24:25;;;;;;;;;;;2.70;99.90;;;;;;5114686;28;20028;-69
2021/12/25 15:26:58;;;;;;;;;;;2.70;99.90;;;;;;5114283;28;19947;-69
2021/12/25 15:29:31;;;;;;;;;;;2.70;99.90;;;;;;5115218;27;19925;-69
2021/12/25 15:31:58;;;;;;;;;;;2.70;99.90;;;;;;5134918;27;20371;-69
2021/12/25 15:34:23;;;;;;;;;;;2.70;99.90;;;;;;5115141;27;20010;-70
2021/12/25 15:36:49;;;;;;;;;;;2.80;99.90;;;;;;5134996;27;19976;-70
2021/12/25 15:39:16;;;;;;;;;;;2.90;99.90;;;;;;5116448;27;19908;-70
2021/12/25 15:41:43;;;;;;;;;;;3.00;99.90;;;;;;5116532;27;19930;-71
2021/12/25 15:44:09;;;;;;;;;;;3.00;99.90;;;;;;5116223;27;19973;-70
2021/12/25 15:46:35;;;;;;;;;;;3.10;99.90;;;;;;5133752;27;19907;-70
2021/12/25 15:49:00;;;;;;;;;;;3.00;99.90;;;;;;5134704;27;19961;-71
2021/12/25 15:51:28;;;;;;;;;;;3.00;99.90;;;;;;5133659;27;19994;-71
2021/12/25 15:53:54;;;;;;;;;;;3.00;99.90;;;;;;5116052;27;19911;-71